This is the latest recevied weather packets stored in our database for station/object CA4LJZ-10. If no packets are shown the sender has not sent any weather packets the latest 10 day(s).
| Time | Temp. | Humidity | Pressure | Rain* | Wind** | Luminosity | Snow |
|---|---|---|---|---|---|---|---|
| 1777969848 | 17.78° C | 43% | 951.6 hPa | - | - | - | - |
| 1777968969 | 16.11° C | 42% | 951.5 hPa | - | - | - | - |
| 1777968068 | 16.67° C | 42% | 951.2 hPa | - | - | - | - |
| 1777966266 | 16.11° C | 45% | 951.5 hPa | - | - | - | - |
| 1777965365 | 16.67° C | 43% | 951.2 hPa | - | - | - | - |
| 1777964465 | 16.67° C | 44% | 951.5 hPa | - | - | - | - |
| 1777963564 | 16.67° C | 44% | 951.8 hPa | - | - | - | - |
| 1777962663 | 17.22° C | 41% | 951.7 hPa | - | - | - | - |
| 1777961762 | 17.22° C | 41% | 952 hPa | - | - | - | - |
| 1777959960 | 16.67° C | 43% | 952.3 hPa | - | - | - | - |
| 1777959059 | 16.67° C | 43% | 952.4 hPa | - | - | - | - |
| 1777958158 | 16.67° C | 44% | 952.5 hPa | - | - | - | - |
| 1777956357 | 16.67° C | 42% | 952.8 hPa | - | - | - | - |
| 1777955456 | 16.67° C | 43% | 953 hPa | - | - | - | - |
| 1777954555 | 16.11° C | 43% | 952.8 hPa | - | - | - | - |
| 1777953654 | 16.67° C | 42% | 952.8 hPa | - | - | - | - |
| 1777943772 | 17.22° C | 42% | 952.5 hPa | - | - | - | - |
| 1777941068 | 17.22° C | 43% | 952.6 hPa | - | - | - | - |
| 1777923975 | 21.11° C | 34% | 952.8 hPa | - | - | - | - |
| 1777923074 | 21.11° C | 35% | 952.8 hPa | - | - | - | - |
| 1777922173 | 21.11° C | 37% | 953 hPa | - | - | - | - |
| 1777915867 | 20.56° C | 36% | 953.9 hPa | - | - | - | - |
| 1777912258 | 20° C | 38% | 954.4 hPa | - | - | - | - |
| 1777910841 | 19.44° C | 39% | 954.4 hPa | - | - | - | - |
| 1777900566 | 18.33° C | 42% | 954.2 hPa | - | - | - | - |
* Rain since midnight (hover to see other rain measurements)
** Current wind speed in m/s (hover to see current wind gust speed)